sensor_id;sensor_type;location;lat;lon;timestamp;P1;durP1;ratioP1;P2;durP2;ratioP2
69246;SDS011;56358;56.328;43.992;2024-01-06T00:00:00;0.53;;;0.53;;
69246;SDS011;56358;56.328;43.992;2024-01-06T00:02:01;1.80;;;0.70;;
69246;SDS011;56358;56.328;43.992;2024-01-06T00:04:02;1.07;;;0.80;;
69246;SDS011;56358;56.328;43.992;2024-01-06T00:06:03;1.00;;;0.93;;
69246;SDS011;56358;56.328;43.992;2024-01-06T00:08:04;0.53;;;0.53;;
69246;SDS011;56358;56.328;43.992;2024-01-06T00:10:06;1.35;;;1.00;;
69246;SDS011;56358;56.328;43.992;2024-01-06T00:12:07;0.53;;;0.53;;
69246;SDS011;56358;56.328;43.992;2024-01-06T00:14:08;1.17;;;1.07;;
69246;SDS011;56358;56.328;43.992;2024-01-06T00:16:09;2.73;;;0.73;;
69246;SDS011;56358;56.328;43.992;2024-01-06T00:18:10;0.73;;;0.37;;
69246;SDS011;56358;56.328;43.992;2024-01-06T00:20:10;0.43;;;0.43;;
69246;SDS011;56358;56.328;43.992;2024-01-06T00:22:12;0.70;;;0.70;;
69246;SDS011;56358;56.328;43.992;2024-01-06T00:24:12;1.10;;;0.57;;
69246;SDS011;56358;56.328;43.992;2024-01-06T00:26:13;0.23;;;0.23;;
69246;SDS011;56358;56.328;43.992;2024-01-06T00:28:14;0.77;;;0.77;;
69246;SDS011;56358;56.328;43.992;2024-01-06T00:30:14;4.50;;;0.87;;
69246;SDS011;56358;56.328;43.992;2024-01-06T00:32:15;0.70;;;0.70;;
69246;SDS011;56358;56.328;43.992;2024-01-06T00:34:16;1.80;;;0.83;;
69246;SDS011;56358;56.328;43.992;2024-01-06T00:36:17;2.20;;;0.90;;
69246;SDS011;56358;56.328;43.992;2024-01-06T00:38:17;3.00;;;0.93;;
69246;SDS011;56358;56.328;43.992;2024-01-06T00:40:19;6.95;;;3.63;;
69246;SDS011;56358;56.328;43.992;2024-01-06T00:42:19;2.63;;;1.00;;
69246;SDS011;56358;56.328;43.992;2024-01-06T00:44:20;1.60;;;0.80;;
69246;SDS011;56358;56.328;43.992;2024-01-06T00:46:21;3.57;;;0.73;;
69246;SDS011;56358;56.328;43.992;2024-01-06T00:48:22;0.53;;;0.53;;
69246;SDS011;56358;56.328;43.992;2024-01-06T00:50:22;1.03;;;1.03;;
69246;SDS011;56358;56.328;43.992;2024-01-06T00:52:24;1.50;;;1.03;;
69246;SDS011;56358;56.328;43.992;2024-01-06T00:54:24;0.20;;;0.20;;
69246;SDS011;56358;56.328;43.992;2024-01-06T00:56:25;0.60;;;0.60;;
69246;SDS011;56358;56.328;43.992;2024-01-06T00:58:27;0.30;;;0.30;;
69246;SDS011;56358;56.328;43.992;2024-01-06T01:00:28;0.43;;;0.40;;
69246;SDS011;56358;56.328;43.992;2024-01-06T01:02:28;0.73;;;0.73;;
69246;SDS011;56358;56.328;43.992;2024-01-06T01:04:29;0.50;;;0.50;;
69246;SDS011;56358;56.328;43.992;2024-01-06T01:06:30;0.60;;;0.60;;
69246;SDS011;56358;56.328;43.992;2024-01-06T01:08:31;2.43;;;1.30;;
69246;SDS011;56358;56.328;43.992;2024-01-06T01:10:32;1.30;;;1.20;;
69246;SDS011;56358;56.328;43.992;2024-01-06T01:12:32;0.50;;;0.50;;
69246;SDS011;56358;56.328;43.992;2024-01-06T01:14:33;0.60;;;0.60;;
69246;SDS011;56358;56.328;43.992;2024-01-06T01:16:34;0.60;;;0.60;;
69246;SDS011;56358;56.328;43.992;2024-01-06T01:18:35;0.60;;;0.60;;
69246;SDS011;56358;56.328;43.992;2024-01-06T01:20:35;0.30;;;0.30;;
69246;SDS011;56358;56.328;43.992;2024-01-06T01:22:36;0.30;;;0.30;;
69246;SDS011;56358;56.328;43.992;2024-01-06T01:24:37;0.30;;;0.30;;
69246;SDS011;56358;56.328;43.992;2024-01-06T01:26:38;1.37;;;1.27;;
69246;SDS011;56358;56.328;43.992;2024-01-06T01:28:38;0.30;;;0.30;;
69246;SDS011;56358;56.328;43.992;2024-01-06T01:30:39;0.83;;;0.83;;
69246;SDS011;56358;56.328;43.992;2024-01-06T01:32:40;1.23;;;0.87;;
69246;SDS011;56358;56.328;43.992;2024-01-06T01:34:40;3.60;;;1.33;;
69246;SDS011;56358;56.328;43.992;2024-01-06T01:36:41;1.00;;;0.57;;
69246;SDS011;56358;56.328;43.992;2024-01-06T01:38:42;0.33;;;0.33;;
69246;SDS011;56358;56.328;43.992;2024-01-06T01:40:42;1.70;;;1.27;;
69246;SDS011;56358;56.328;43.992;2024-01-06T01:42:43;8.87;;;1.53;;
69246;SDS011;56358;56.328;43.992;2024-01-06T01:44:44;6.40;;;1.23;;
69246;SDS011;56358;56.328;43.992;2024-01-06T01:46:45;0.50;;;0.50;;
69246;SDS011;56358;56.328;43.992;2024-01-06T01:48:46;0.70;;;0.70;;
69246;SDS011;56358;56.328;43.992;2024-01-06T01:50:47;1.13;;;1.03;;
69246;SDS011;56358;56.328;43.992;2024-01-06T01:52:48;1.17;;;1.10;;
69246;SDS011;56358;56.328;43.992;2024-01-06T01:54:49;0.63;;;0.63;;
69246;SDS011;56358;56.328;43.992;2024-01-06T01:56:50;0.45;;;0.45;;
69246;SDS011;56358;56.328;43.992;2024-01-06T01:58:51;1.37;;;1.27;;
69246;SDS011;56358;56.328;43.992;2024-01-06T02:00:53;0.28;;;0.28;;
69246;SDS011;56358;56.328;43.992;2024-01-06T02:02:54;6.70;;;0.50;;
69246;SDS011;56358;56.328;43.992;2024-01-06T02:04:55;1.10;;;0.57;;
69246;SDS011;56358;56.328;43.992;2024-01-06T02:06:56;0.30;;;0.30;;
69246;SDS011;56358;56.328;43.992;2024-01-06T02:08:57;0.30;;;0.30;;
69246;SDS011;56358;56.328;43.992;2024-01-06T02:10:58;0.60;;;0.60;;
69246;SDS011;56358;56.328;43.992;2024-01-06T02:13:11;0.60;;;0.60;;
69246;SDS011;56358;56.328;43.992;2024-01-06T02:15:13;0.80;;;0.80;;
69246;SDS011;56358;56.328;43.992;2024-01-06T02:17:14;0.53;;;0.50;;
69246;SDS011;56358;56.328;43.992;2024-01-06T02:19:16;0.73;;;0.73;;
69246;SDS011;56358;56.328;43.992;2024-01-06T02:21:21;1.57;;;1.47;;
69246;SDS011;56358;56.328;43.992;2024-01-06T02:23:22;2.90;;;0.63;;
69246;SDS011;56358;56.328;43.992;2024-01-06T02:25:23;0.30;;;0.30;;
69246;SDS011;56358;56.328;43.992;2024-01-06T02:27:24;0.40;;;0.40;;
69246;SDS011;56358;56.328;43.992;2024-01-06T02:29:25;0.70;;;0.70;;
69246;SDS011;56358;56.328;43.992;2024-01-06T02:31:25;1.53;;;0.87;;
69246;SDS011;56358;56.328;43.992;2024-01-06T02:33:26;2.13;;;1.50;;
69246;SDS011;56358;56.328;43.992;2024-01-06T02:35:27;4.43;;;0.73;;
69246;SDS011;56358;56.328;43.992;2024-01-06T02:37:27;0.67;;;0.67;;
69246;SDS011;56358;56.328;43.992;2024-01-06T02:39:28;0.50;;;0.50;;
69246;SDS011;56358;56.328;43.992;2024-01-06T02:41:29;0.40;;;0.40;;
69246;SDS011;56358;56.328;43.992;2024-01-06T02:43:30;0.70;;;0.70;;
69246;SDS011;56358;56.328;43.992;2024-01-06T02:45:31;1.00;;;1.00;;
69246;SDS011;56358;56.328;43.992;2024-01-06T02:47:31;0.60;;;0.60;;
69246;SDS011;56358;56.328;43.992;2024-01-06T02:49:32;4.57;;;2.97;;
69246;SDS011;56358;56.328;43.992;2024-01-06T02:51:33;0.90;;;0.90;;
69246;SDS011;56358;56.328;43.992;2024-01-06T02:53:33;0.37;;;0.37;;
69246;SDS011;56358;56.328;43.992;2024-01-06T02:55:34;2.13;;;0.77;;
69246;SDS011;56358;56.328;43.992;2024-01-06T02:57:35;0.80;;;0.80;;
69246;SDS011;56358;56.328;43.992;2024-01-06T02:59:36;0.82;;;0.77;;
69246;SDS011;56358;56.328;43.992;2024-01-06T03:01:37;2.23;;;1.03;;
69246;SDS011;56358;56.328;43.992;2024-01-06T03:03:38;0.40;;;0.40;;
69246;SDS011;56358;56.328;43.992;2024-01-06T03:05:38;0.60;;;0.40;;
69246;SDS011;56358;56.328;43.992;2024-01-06T03:07:39;1.40;;;1.03;;
69246;SDS011;56358;56.328;43.992;2024-01-06T03:09:40;0.30;;;0.30;;
69246;SDS011;56358;56.328;43.992;2024-01-06T03:11:40;3.10;;;0.70;;
69246;SDS011;56358;56.328;43.992;2024-01-06T03:13:41;0.60;;;0.60;;
69246;SDS011;56358;56.328;43.992;2024-01-06T03:15:42;0.30;;;0.30;;
69246;SDS011;56358;56.328;43.992;2024-01-06T03:17:42;0.30;;;0.30;;
69246;SDS011;56358;56.328;43.992;2024-01-06T03:19:43;0.63;;;0.63;;
69246;SDS011;56358;56.328;43.992;2024-01-06T03:21:44;0.57;;;0.57;;
69246;SDS011;56358;56.328;43.992;2024-01-06T03:23:45;1.40;;;1.17;;
69246;SDS011;56358;56.328;43.992;2024-01-06T03:25:47;0.75;;;0.50;;
69246;SDS011;56358;56.328;43.992;2024-01-06T03:27:48;0.50;;;0.50;;
69246;SDS011;56358;56.328;43.992;2024-01-06T03:29:48;1.17;;;1.07;;
69246;SDS011;56358;56.328;43.992;2024-01-06T03:31:49;0.60;;;0.60;;
69246;SDS011;56358;56.328;43.992;2024-01-06T03:33:50;1.80;;;1.00;;
69246;SDS011;56358;56.328;43.992;2024-01-06T03:35:51;1.55;;;0.85;;
69246;SDS011;56358;56.328;43.992;2024-01-06T03:37:52;1.90;;;0.77;;
69246;SDS011;56358;56.328;43.992;2024-01-06T03:39:53;2.63;;;0.63;;
69246;SDS011;56358;56.328;43.992;2024-01-06T03:41:54;1.60;;;1.20;;
69246;SDS011;56358;56.328;43.992;2024-01-06T03:43:55;0.57;;;0.57;;
69246;SDS011;56358;56.328;43.992;2024-01-06T03:45:55;7.80;;;1.00;;
69246;SDS011;56358;56.328;43.992;2024-01-06T03:47:58;1.98;;;1.05;;
69246;SDS011;56358;56.328;43.992;2024-01-06T03:49:58;2.33;;;0.50;;
69246;SDS011;56358;56.328;43.992;2024-01-06T03:51:59;3.63;;;1.43;;
69246;SDS011;56358;56.328;43.992;2024-01-06T03:54:00;0.67;;;0.67;;
69246;SDS011;56358;56.328;43.992;2024-01-06T03:56:01;0.67;;;0.57;;
69246;SDS011;56358;56.328;43.992;2024-01-06T03:58:01;2.50;;;1.00;;
69246;SDS011;56358;56.328;43.992;2024-01-06T04:00:02;0.97;;;0.70;;
69246;SDS011;56358;56.328;43.992;2024-01-06T04:02:05;1.70;;;1.60;;
69246;SDS011;56358;56.328;43.992;2024-01-06T04:04:06;3.53;;;2.37;;
69246;SDS011;56358;56.328;43.992;2024-01-06T04:06:07;0.50;;;0.50;;
69246;SDS011;56358;56.328;43.992;2024-01-06T04:08:09;1.08;;;1.08;;
69246;SDS011;56358;56.328;43.992;2024-01-06T04:10:09;0.67;;;0.67;;
69246;SDS011;56358;56.328;43.992;2024-01-06T04:12:10;4.60;;;1.53;;
69246;SDS011;56358;56.328;43.992;2024-01-06T04:14:11;0.70;;;0.50;;
69246;SDS011;56358;56.328;43.992;2024-01-06T04:16:12;1.43;;;1.33;;
69246;SDS011;56358;56.328;43.992;2024-01-06T04:18:13;0.57;;;0.52;;
69246;SDS011;56358;56.328;43.992;2024-01-06T04:20:14;1.43;;;1.20;;
69246;SDS011;56358;56.328;43.992;2024-01-06T04:22:14;2.40;;;0.70;;
69246;SDS011;56358;56.328;43.992;2024-01-06T04:24:15;0.60;;;0.60;;
69246;SDS011;56358;56.328;43.992;2024-01-06T04:26:16;0.63;;;0.63;;
69246;SDS011;56358;56.328;43.992;2024-01-06T04:28:16;0.30;;;0.30;;
69246;SDS011;56358;56.328;43.992;2024-01-06T04:30:17;0.33;;;0.33;;
69246;SDS011;56358;56.328;43.992;2024-01-06T04:32:18;10.47;;;2.70;;
69246;SDS011;56358;56.328;43.992;2024-01-06T04:34:19;2.23;;;1.03;;
69246;SDS011;56358;56.328;43.992;2024-01-06T04:36:20;2.00;;;1.23;;
69246;SDS011;56358;56.328;43.992;2024-01-06T04:38:20;0.60;;;0.60;;
69246;SDS011;56358;56.328;43.992;2024-01-06T04:40:21;0.83;;;0.83;;
69246;SDS011;56358;56.328;43.992;2024-01-06T04:42:22;0.67;;;0.67;;
69246;SDS011;56358;56.328;43.992;2024-01-06T04:44:23;0.80;;;0.80;;
69246;SDS011;56358;56.328;43.992;2024-01-06T04:46:24;0.25;;;0.25;;
69246;SDS011;56358;56.328;43.992;2024-01-06T04:48:25;0.30;;;0.30;;
69246;SDS011;56358;56.328;43.992;2024-01-06T04:50:25;0.40;;;0.40;;
69246;SDS011;56358;56.328;43.992;2024-01-06T04:52:26;1.10;;;1.10;;
69246;SDS011;56358;56.328;43.992;2024-01-06T04:54:27;1.47;;;1.07;;
69246;SDS011;56358;56.328;43.992;2024-01-06T04:56:27;0.40;;;0.40;;
69246;SDS011;56358;56.328;43.992;2024-01-06T04:58:28;0.33;;;0.33;;
69246;SDS011;56358;56.328;43.992;2024-01-06T05:00:29;0.70;;;0.70;;
69246;SDS011;56358;56.328;43.992;2024-01-06T05:02:30;0.30;;;0.30;;
69246;SDS011;56358;56.328;43.992;2024-01-06T05:04:31;2.30;;;0.90;;
69246;SDS011;56358;56.328;43.992;2024-01-06T05:06:33;1.55;;;1.38;;
69246;SDS011;56358;56.328;43.992;2024-01-06T05:08:34;0.20;;;0.20;;
69246;SDS011;56358;56.328;43.992;2024-01-06T05:10:38;0.50;;;0.50;;
69246;SDS011;56358;56.328;43.992;2024-01-06T05:12:39;1.33;;;1.23;;
69246;SDS011;56358;56.328;43.992;2024-01-06T05:14:40;0.80;;;0.80;;
69246;SDS011;56358;56.328;43.992;2024-01-06T05:16:41;0.77;;;0.77;;
69246;SDS011;56358;56.328;43.992;2024-01-06T05:18:42;0.30;;;0.30;;
69246;SDS011;56358;56.328;43.992;2024-01-06T05:20:43;0.30;;;0.30;;
69246;SDS011;56358;56.328;43.992;2024-01-06T05:22:43;0.30;;;0.30;;
69246;SDS011;56358;56.328;43.992;2024-01-06T05:24:44;0.87;;;0.87;;
69246;SDS011;56358;56.328;43.992;2024-01-06T05:26:45;0.43;;;0.43;;
69246;SDS011;56358;56.328;43.992;2024-01-06T05:28:46;1.40;;;0.63;;
69246;SDS011;56358;56.328;43.992;2024-01-06T05:30:47;3.15;;;0.77;;
69246;SDS011;56358;56.328;43.992;2024-01-06T05:32:47;3.13;;;0.73;;
69246;SDS011;56358;56.328;43.992;2024-01-06T05:34:48;0.60;;;0.60;;
69246;SDS011;56358;56.328;43.992;2024-01-06T05:36:49;0.50;;;0.50;;
69246;SDS011;56358;56.328;43.992;2024-01-06T05:38:50;1.63;;;1.53;;
69246;SDS011;56358;56.328;43.992;2024-01-06T05:40:50;0.70;;;0.70;;
69246;SDS011;56358;56.328;43.992;2024-01-06T05:42:51;0.77;;;0.77;;
69246;SDS011;56358;56.328;43.992;2024-01-06T05:44:55;0.20;;;0.20;;
69246;SDS011;56358;56.328;43.992;2024-01-06T05:46:56;0.43;;;0.43;;
69246;SDS011;56358;56.328;43.992;2024-01-06T05:48:57;1.10;;;1.03;;
69246;SDS011;56358;56.328;43.992;2024-01-06T05:50:57;1.13;;;0.97;;
69246;SDS011;56358;56.328;43.992;2024-01-06T05:52:58;0.40;;;0.40;;
69246;SDS011;56358;56.328;43.992;2024-01-06T05:54:59;2.47;;;1.90;;
69246;SDS011;56358;56.328;43.992;2024-01-06T05:56:59;1.43;;;1.33;;
69246;SDS011;56358;56.328;43.992;2024-01-06T05:59:00;1.43;;;0.47;;
69246;SDS011;56358;56.328;43.992;2024-01-06T06:01:03;0.97;;;0.93;;
69246;SDS011;56358;56.328;43.992;2024-01-06T06:03:04;5.68;;;2.75;;
69246;SDS011;56358;56.328;43.992;2024-01-06T06:05:05;1.40;;;0.65;;
69246;SDS011;56358;56.328;43.992;2024-01-06T06:07:06;0.80;;;0.80;;
69246;SDS011;56358;56.328;43.992;2024-01-06T06:09:06;2.63;;;1.60;;
69246;SDS011;56358;56.328;43.992;2024-01-06T06:11:07;6.75;;;1.17;;
69246;SDS011;56358;56.328;43.992;2024-01-06T06:13:11;1.97;;;1.83;;
69246;SDS011;56358;56.328;43.992;2024-01-06T06:15:12;0.65;;;0.65;;
69246;SDS011;56358;56.328;43.992;2024-01-06T06:17:12;1.50;;;0.57;;
69246;SDS011;56358;56.328;43.992;2024-01-06T06:19:13;1.17;;;1.03;;
69246;SDS011;56358;56.328;43.992;2024-01-06T06:21:14;2.30;;;1.60;;
69246;SDS011;56358;56.328;43.992;2024-01-06T06:23:14;1.03;;;0.93;;
69246;SDS011;56358;56.328;43.992;2024-01-06T06:25:15;4.03;;;1.60;;
69246;SDS011;56358;56.328;43.992;2024-01-06T06:27:16;4.63;;;1.30;;
69246;SDS011;56358;56.328;43.992;2024-01-06T06:29:16;1.43;;;1.10;;
69246;SDS011;56358;56.328;43.992;2024-01-06T06:31:17;1.23;;;0.40;;
69246;SDS011;56358;56.328;43.992;2024-01-06T06:33:18;1.10;;;1.10;;
69246;SDS011;56358;56.328;43.992;2024-01-06T06:35:19;5.32;;;2.58;;
69246;SDS011;56358;56.328;43.992;2024-01-06T06:37:19;0.30;;;0.30;;
69246;SDS011;56358;56.328;43.992;2024-01-06T06:39:21;1.65;;;0.82;;
69246;SDS011;56358;56.328;43.992;2024-01-06T06:41:21;0.30;;;0.30;;
69246;SDS011;56358;56.328;43.992;2024-01-06T06:43:22;1.50;;;1.40;;
69246;SDS011;56358;56.328;43.992;2024-01-06T06:45:23;0.63;;;0.63;;
69246;SDS011;56358;56.328;43.992;2024-01-06T06:47:24;3.27;;;2.33;;
69246;SDS011;56358;56.328;43.992;2024-01-06T06:49:24;2.97;;;1.93;;
69246;SDS011;56358;56.328;43.992;2024-01-06T06:51:26;1.33;;;1.23;;
69246;SDS011;56358;56.328;43.992;2024-01-06T06:53:27;0.75;;;0.60;;
69246;SDS011;56358;56.328;43.992;2024-01-06T06:55:28;3.00;;;2.17;;
69246;SDS011;56358;56.328;43.992;2024-01-06T06:57:29;1.03;;;0.97;;
69246;SDS011;56358;56.328;43.992;2024-01-06T06:59:30;0.73;;;0.70;;
69246;SDS011;56358;56.328;43.992;2024-01-06T07:01:30;0.83;;;0.83;;
69246;SDS011;56358;56.328;43.992;2024-01-06T07:03:31;1.57;;;1.37;;
69246;SDS011;56358;56.328;43.992;2024-01-06T07:05:32;4.07;;;1.53;;
69246;SDS011;56358;56.328;43.992;2024-01-06T07:07:33;0.70;;;0.70;;
69246;SDS011;56358;56.328;43.992;2024-01-06T07:09:34;0.40;;;0.40;;
69246;SDS011;56358;56.328;43.992;2024-01-06T07:11:34;2.43;;;2.23;;
69246;SDS011;56358;56.328;43.992;2024-01-06T07:13:35;2.53;;;2.43;;
69246;SDS011;56358;56.328;43.992;2024-01-06T07:15:36;4.10;;;2.67;;
69246;SDS011;56358;56.328;43.992;2024-01-06T07:17:37;0.60;;;0.60;;
69246;SDS011;56358;56.328;43.992;2024-01-06T07:19:38;1.58;;;1.48;;
69246;SDS011;56358;56.328;43.992;2024-01-06T07:21:39;0.93;;;0.90;;
69246;SDS011;56358;56.328;43.992;2024-01-06T07:23:40;1.27;;;0.40;;
69246;SDS011;56358;56.328;43.992;2024-01-06T07:25:41;2.77;;;1.90;;
69246;SDS011;56358;56.328;43.992;2024-01-06T07:27:41;1.17;;;1.10;;
69246;SDS011;56358;56.328;43.992;2024-01-06T07:29:42;0.40;;;0.40;;
69246;SDS011;56358;56.328;43.992;2024-01-06T07:31:43;2.13;;;2.03;;
69246;SDS011;56358;56.328;43.992;2024-01-06T07:33:44;0.90;;;0.90;;
69246;SDS011;56358;56.328;43.992;2024-01-06T07:35:44;10.30;;;3.03;;
69246;SDS011;56358;56.328;43.992;2024-01-06T07:37:46;1.50;;;1.40;;
69246;SDS011;56358;56.328;43.992;2024-01-06T07:39:47;2.10;;;1.73;;
69246;SDS011;56358;56.328;43.992;2024-01-06T07:41:47;3.60;;;1.77;;
69246;SDS011;56358;56.328;43.992;2024-01-06T07:43:48;1.80;;;1.70;;
69246;SDS011;56358;56.328;43.992;2024-01-06T07:45:49;5.87;;;4.73;;
69246;SDS011;56358;56.328;43.992;2024-01-06T07:47:51;3.63;;;1.83;;
69246;SDS011;56358;56.328;43.992;2024-01-06T07:49:51;1.13;;;1.13;;
69246;SDS011;56358;56.328;43.992;2024-01-06T07:51:53;1.25;;;1.13;;
69246;SDS011;56358;56.328;43.992;2024-01-06T07:53:54;0.50;;;0.50;;
69246;SDS011;56358;56.328;43.992;2024-01-06T07:55:54;2.10;;;1.90;;
69246;SDS011;56358;56.328;43.992;2024-01-06T07:57:55;4.53;;;2.45;;
69246;SDS011;56358;56.328;43.992;2024-01-06T07:59:56;1.00;;;0.80;;
69246;SDS011;56358;56.328;43.992;2024-01-06T08:01:57;1.73;;;1.63;;
69246;SDS011;56358;56.328;43.992;2024-01-06T08:03:58;0.68;;;0.68;;
69246;SDS011;56358;56.328;43.992;2024-01-06T08:06:00;5.40;;;0.88;;
69246;SDS011;56358;56.328;43.992;2024-01-06T08:08:01;4.40;;;1.60;;
69246;SDS011;56358;56.328;43.992;2024-01-06T08:10:02;5.83;;;1.07;;
69246;SDS011;56358;56.328;43.992;2024-01-06T08:12:06;0.57;;;0.57;;
69246;SDS011;56358;56.328;43.992;2024-01-06T08:14:07;1.27;;;1.20;;
69246;SDS011;56358;56.328;43.992;2024-01-06T08:16:08;0.40;;;0.40;;
69246;SDS011;56358;56.328;43.992;2024-01-06T08:18:08;0.87;;;0.77;;
69246;SDS011;56358;56.328;43.992;2024-01-06T08:20:09;3.00;;;1.27;;
69246;SDS011;56358;56.328;43.992;2024-01-06T08:22:10;0.93;;;0.93;;
69246;SDS011;56358;56.328;43.992;2024-01-06T08:24:11;1.43;;;1.33;;
69246;SDS011;56358;56.328;43.992;2024-01-06T08:26:12;5.43;;;1.33;;
69246;SDS011;56358;56.328;43.992;2024-01-06T08:28:13;1.10;;;1.10;;
69246;SDS011;56358;56.328;43.992;2024-01-06T08:32:15;0.40;;;0.40;;
69246;SDS011;56358;56.328;43.992;2024-01-06T08:34:16;3.35;;;1.38;;
69246;SDS011;56358;56.328;43.992;2024-01-06T08:36:17;0.87;;;0.87;;
69246;SDS011;56358;56.328;43.992;2024-01-06T08:38:18;3.20;;;1.53;;
69246;SDS011;56358;56.328;43.992;2024-01-06T08:40:19;6.13;;;5.67;;
69246;SDS011;56358;56.328;43.992;2024-01-06T08:42:20;2.67;;;1.53;;
69246;SDS011;56358;56.328;43.992;2024-01-06T08:44:21;2.80;;;0.97;;
69246;SDS011;56358;56.328;43.992;2024-01-06T08:46:22;2.47;;;1.97;;
69246;SDS011;56358;56.328;43.992;2024-01-06T08:48:22;4.07;;;1.10;;
69246;SDS011;56358;56.328;43.992;2024-01-06T08:50:23;1.00;;;0.87;;
69246;SDS011;56358;56.328;43.992;2024-01-06T08:52:24;0.77;;;0.77;;
69246;SDS011;56358;56.328;43.992;2024-01-06T08:54:24;1.33;;;1.23;;
69246;SDS011;56358;56.328;43.992;2024-01-06T08:56:25;1.07;;;0.97;;
69246;SDS011;56358;56.328;43.992;2024-01-06T08:58:26;8.40;;;4.45;;
69246;SDS011;56358;56.328;43.992;2024-01-06T09:00:27;0.83;;;0.83;;
69246;SDS011;56358;56.328;43.992;2024-01-06T09:02:28;1.43;;;1.30;;
69246;SDS011;56358;56.328;43.992;2024-01-06T09:04:29;3.50;;;2.10;;
69246;SDS011;56358;56.328;43.992;2024-01-06T09:06:30;0.53;;;0.53;;
69246;SDS011;56358;56.328;43.992;2024-01-06T09:08:31;2.95;;;2.08;;
69246;SDS011;56358;56.328;43.992;2024-01-06T09:10:32;3.80;;;0.63;;
69246;SDS011;56358;56.328;43.992;2024-01-06T09:12:33;0.80;;;0.80;;
69246;SDS011;56358;56.328;43.992;2024-01-06T09:14:33;6.63;;;2.40;;
69246;SDS011;56358;56.328;43.992;2024-01-06T09:16:34;1.70;;;1.00;;
69246;SDS011;56358;56.328;43.992;2024-01-06T09:18:35;3.67;;;2.70;;
69246;SDS011;56358;56.328;43.992;2024-01-06T09:20:35;2.90;;;2.60;;
69246;SDS011;56358;56.328;43.992;2024-01-06T09:22:36;6.73;;;2.80;;
69246;SDS011;56358;56.328;43.992;2024-01-06T09:24:37;2.17;;;1.63;;
69246;SDS011;56358;56.328;43.992;2024-01-06T09:26:37;36.00;;;7.50;;
69246;SDS011;56358;56.328;43.992;2024-01-06T09:28:38;10.50;;;2.37;;
69246;SDS011;56358;56.328;43.992;2024-01-06T09:30:39;6.30;;;3.00;;
69246;SDS011;56358;56.328;43.992;2024-01-06T09:32:40;10.60;;;3.13;;
69246;SDS011;56358;56.328;43.992;2024-01-06T09:34:41;21.50;;;3.17;;
69246;SDS011;56358;56.328;43.992;2024-01-06T09:36:42;10.83;;;2.87;;
69246;SDS011;56358;56.328;43.992;2024-01-06T09:38:42;7.10;;;3.67;;
69246;SDS011;56358;56.328;43.992;2024-01-06T09:40:43;0.70;;;0.70;;
69246;SDS011;56358;56.328;43.992;2024-01-06T09:42:45;8.13;;;3.30;;
69246;SDS011;56358;56.328;43.992;2024-01-06T09:44:45;1.00;;;0.90;;
69246;SDS011;56358;56.328;43.992;2024-01-06T09:46:46;3.00;;;1.93;;
69246;SDS011;56358;56.328;43.992;2024-01-06T09:48:48;1.25;;;1.02;;
69246;SDS011;56358;56.328;43.992;2024-01-06T09:50:53;7.43;;;2.60;;
69246;SDS011;56358;56.328;43.992;2024-01-06T09:52:56;5.00;;;2.67;;
69246;SDS011;56358;56.328;43.992;2024-01-06T09:55:05;2.93;;;1.30;;
69246;SDS011;56358;56.328;43.992;2024-01-06T09:57:10;1.33;;;1.23;;
69246;SDS011;56358;56.328;43.992;2024-01-06T09:59:11;1.80;;;1.70;;
69246;SDS011;56358;56.328;43.992;2024-01-06T10:01:12;2.30;;;2.10;;
69246;SDS011;56358;56.328;43.992;2024-01-06T10:03:15;5.67;;;3.67;;
69246;SDS011;56358;56.328;43.992;2024-01-06T10:05:17;5.78;;;3.92;;
69246;SDS011;56358;56.328;43.992;2024-01-06T10:07:18;7.72;;;2.00;;
69246;SDS011;56358;56.328;43.992;2024-01-06T10:09:25;3.57;;;2.73;;
69246;SDS011;56358;56.328;43.992;2024-01-06T10:11:26;3.50;;;1.57;;
69246;SDS011;56358;56.328;43.992;2024-01-06T10:13:27;1.80;;;1.70;;
69246;SDS011;56358;56.328;43.992;2024-01-06T10:15:29;4.43;;;1.98;;
69246;SDS011;56358;56.328;43.992;2024-01-06T10:17:29;1.23;;;1.20;;
69246;SDS011;56358;56.328;43.992;2024-01-06T10:19:30;3.03;;;2.63;;
69246;SDS011;56358;56.328;43.992;2024-01-06T10:21:31;17.33;;;6.67;;
69246;SDS011;56358;56.328;43.992;2024-01-06T10:23:33;10.27;;;2.97;;
69246;SDS011;56358;56.328;43.992;2024-01-06T10:25:34;2.10;;;1.92;;
69246;SDS011;56358;56.328;43.992;2024-01-06T10:27:39;0.63;;;0.55;;
69246;SDS011;56358;56.328;43.992;2024-01-06T10:29:40;3.60;;;2.20;;
69246;SDS011;56358;56.328;43.992;2024-01-06T10:31:41;10.60;;;2.83;;
69246;SDS011;56358;56.328;43.992;2024-01-06T10:33:42;7.70;;;2.97;;
69246;SDS011;56358;56.328;43.992;2024-01-06T10:35:43;5.13;;;2.30;;
69246;SDS011;56358;56.328;43.992;2024-01-06T10:37:45;2.53;;;1.52;;
69246;SDS011;56358;56.328;43.992;2024-01-06T10:39:46;6.70;;;4.13;;
69246;SDS011;56358;56.328;43.992;2024-01-06T10:41:49;7.27;;;2.57;;
69246;SDS011;56358;56.328;43.992;2024-01-06T10:43:52;5.17;;;3.90;;
69246;SDS011;56358;56.328;43.992;2024-01-06T10:45:55;12.18;;;5.15;;
69246;SDS011;56358;56.328;43.992;2024-01-06T10:47:58;4.07;;;2.53;;
69246;SDS011;56358;56.328;43.992;2024-01-06T10:50:00;9.27;;;5.57;;
69246;SDS011;56358;56.328;43.992;2024-01-06T10:52:01;8.07;;;4.53;;
69246;SDS011;56358;56.328;43.992;2024-01-06T10:54:02;6.33;;;3.00;;
69246;SDS011;56358;56.328;43.992;2024-01-06T10:56:03;5.60;;;1.50;;
69246;SDS011;56358;56.328;43.992;2024-01-06T10:58:04;6.70;;;4.03;;
69246;SDS011;56358;56.328;43.992;2024-01-06T11:00:06;5.68;;;3.70;;
69246;SDS011;56358;56.328;43.992;2024-01-06T11:02:10;7.03;;;5.47;;
69246;SDS011;56358;56.328;43.992;2024-01-06T11:04:12;6.10;;;3.90;;
69246;SDS011;56358;56.328;43.992;2024-01-06T11:06:14;4.13;;;3.17;;
69246;SDS011;56358;56.328;43.992;2024-01-06T11:08:16;6.23;;;3.93;;
69246;SDS011;56358;56.328;43.992;2024-01-06T11:10:18;9.23;;;4.83;;
69246;SDS011;56358;56.328;43.992;2024-01-06T11:12:20;12.07;;;4.97;;
69246;SDS011;56358;56.328;43.992;2024-01-06T11:14:24;3.70;;;2.27;;
69246;SDS011;56358;56.328;43.992;2024-01-06T11:16:36;7.40;;;2.77;;
69246;SDS011;56358;56.328;43.992;2024-01-06T11:18:38;6.87;;;2.83;;
69246;SDS011;56358;56.328;43.992;2024-01-06T11:21:02;3.77;;;2.67;;
69246;SDS011;56358;56.328;43.992;2024-01-06T11:23:17;4.57;;;2.45;;
69246;SDS011;56358;56.328;43.992;2024-01-06T11:25:22;4.63;;;4.00;;
69246;SDS011;56358;56.328;43.992;2024-01-06T11:27:26;5.93;;;3.17;;
69246;SDS011;56358;56.328;43.992;2024-01-06T11:29:30;13.27;;;5.30;;
69246;SDS011;56358;56.328;43.992;2024-01-06T11:31:31;10.97;;;4.37;;
69246;SDS011;56358;56.328;43.992;2024-01-06T11:33:32;9.17;;;5.17;;
69246;SDS011;56358;56.328;43.992;2024-01-06T11:35:33;8.43;;;4.63;;
69246;SDS011;56358;56.328;43.992;2024-01-06T11:39:41;5.00;;;3.20;;
69246;SDS011;56358;56.328;43.992;2024-01-06T11:41:48;12.47;;;5.07;;
69246;SDS011;56358;56.328;43.992;2024-01-06T11:43:50;13.73;;;4.53;;
69246;SDS011;56358;56.328;43.992;2024-01-06T11:45:51;6.57;;;5.63;;
69246;SDS011;56358;56.328;43.992;2024-01-06T11:47:57;6.97;;;4.57;;
69246;SDS011;56358;56.328;43.992;2024-01-06T11:50:00;11.90;;;5.35;;
69246;SDS011;56358;56.328;43.992;2024-01-06T11:52:05;4.03;;;3.27;;
69246;SDS011;56358;56.328;43.992;2024-01-06T11:54:06;6.57;;;4.00;;
69246;SDS011;56358;56.328;43.992;2024-01-06T11:56:07;8.45;;;4.28;;
69246;SDS011;56358;56.328;43.992;2024-01-06T11:58:07;9.17;;;5.67;;
69246;SDS011;56358;56.328;43.992;2024-01-06T12:00:08;10.55;;;4.43;;
69246;SDS011;56358;56.328;43.992;2024-01-06T12:02:12;5.00;;;4.03;;